Time;durP1;ratioP1;P1;durP2;ratioP2;P2;SDS_P1;SDS_P2;PMS_P1;PMS_P2;Temp;Humidity;BMP_temperature;BMP_pressure;BME280_temperature;BME280_humidity;BME280_pressure;Samples;Min_cycle;Max_cycle;Signal;HPM_P1;HPM_P2
2023/08/02 00:00:24;;;;;;;0.00;0.00;;;;;;;;;;5125247;28;20056;-84
2023/08/02 00:02:50;;;;;;;0.10;0.10;;;;;;;;;;5109510;28;20023;-84
2023/08/02 00:05:16;;;;;;;0.10;0.10;;;;;;;;;;5108657;28;20032;-85
2023/08/02 00:07:42;;;;;;;0.00;0.00;;;;;;;;;;5109721;28;20046;-84
2023/08/02 00:10:08;;;;;;;0.00;0.00;;;;;;;;;;5109256;28;20480;-84
2023/08/02 00:12:34;;;;;;;0.00;0.00;;;;;;;;;;5109272;28;20016;-84
2023/08/02 00:15:00;;;;;;;0.00;0.00;;;;;;;;;;5109308;28;20020;-84
2023/08/02 00:17:26;;;;;;;0.52;0.28;;;;;;;;;;5109203;28;20042;-84
2023/08/02 00:19:52;;;;;;;0.15;0.15;;;;;;;;;;5108641;28;20077;-84
2023/08/02 00:22:18;;;;;;;0.10;0.10;;;;;;;;;;5109644;28;20028;-84
2023/08/02 00:24:44;;;;;;;0.00;0.00;;;;;;;;;;5108654;28;20016;-84
2023/08/02 00:27:10;;;;;;;0.00;0.00;;;;;;;;;;5108969;28;20060;-84
2023/08/02 00:29:36;;;;;;;0.00;0.00;;;;;;;;;;5108837;28;20044;-84
2023/08/02 00:32:02;;;;;;;0.00;0.00;;;;;;;;;;5108865;28;20487;-84
2023/08/02 00:34:28;;;;;;;0.10;0.10;;;;;;;;;;5108595;28;20020;-85
2023/08/02 00:36:54;;;;;;;0.05;0.05;;;;;;;;;;5109160;28;20039;-84
2023/08/02 00:39:20;;;;;;;0.00;0.00;;;;;;;;;;5108758;28;20031;-84
2023/08/02 00:41:46;;;;;;;0.10;0.10;;;;;;;;;;5099448;28;20035;-84
2023/08/02 00:44:12;;;;;;;0.10;0.10;;;;;;;;;;5095200;28;20032;-84
2023/08/02 00:46:38;;;;;;;0.10;0.10;;;;;;;;;;5095012;28;20056;-84
2023/08/02 00:49:04;;;;;;;0.10;0.10;;;;;;;;;;5094677;28;20024;-85
2023/08/02 00:51:33;;;;;;;0.00;0.00;;;;;;;;;;5094942;28;20032;-84
2023/08/02 00:54:02;;;;;;;0.00;0.00;;;;;;;;;;5095282;28;20024;-85
2023/08/02 00:56:29;;;;;;;0.00;0.00;;;;;;;;;;5094823;28;20407;-84
2023/08/02 00:58:55;;;;;;;0.00;0.00;;;;;;;;;;5095049;28;20081;-84
2023/08/02 01:01:21;;;;;;;0.10;0.10;;;;;;;;;;5095273;28;20032;-85
2023/08/02 01:03:47;;;;;;;0.08;0.03;;;;;;;;;;5094327;28;20024;-84
2023/08/02 01:06:19;;;;;;;0.00;0.00;;;;;;;;;;5094665;28;20365;-84
2023/08/02 01:08:47;;;;;;;0.10;0.10;;;;;;;;;;5094458;28;20024;-84
2023/08/02 01:11:25;;;;;;;0.00;0.00;;;;;;;;;;5094551;28;20113;-84
2023/08/02 01:13:53;;;;;;;0.00;0.00;;;;;;;;;;5094504;28;20046;-84
2023/08/02 01:16:19;;;;;;;0.03;0.03;;;;;;;;;;5094903;28;20400;-84
2023/08/02 01:18:45;;;;;;;0.00;0.00;;;;;;;;;;5094152;28;20044;-84
2023/08/02 01:21:11;;;;;;;0.17;0.17;;;;;;;;;;5094368;28;20039;-84
2023/08/02 01:23:38;;;;;;;0.20;0.20;;;;;;;;;;5094579;28;20376;-85
2023/08/02 01:26:05;;;;;;;0.10;0.10;;;;;;;;;;5094230;28;20032;-84
2023/08/02 01:28:33;;;;;;;0.10;0.10;;;;;;;;;;5075977;28;20396;-84
2023/08/02 01:31:01;;;;;;;0.10;0.10;;;;;;;;;;5094191;28;20055;-84
2023/08/02 01:33:28;;;;;;;0.10;0.10;;;;;;;;;;5093824;28;20039;-84
2023/08/02 01:35:54;;;;;;;0.10;0.10;;;;;;;;;;5094190;28;20030;-84
2023/08/02 01:38:20;;;;;;;0.25;0.10;;;;;;;;;;5094013;28;20020;-84
2023/08/02 01:40:46;;;;;;;0.10;0.10;;;;;;;;;;5093999;28;20425;-84
2023/08/02 01:43:12;;;;;;;0.00;0.00;;;;;;;;;;5094570;28;20108;-84
2023/08/02 01:45:38;;;;;;;0.10;0.10;;;;;;;;;;5093869;28;20469;-84
2023/08/02 01:48:04;;;;;;;0.00;0.00;;;;;;;;;;5093557;28;20036;-84
2023/08/02 01:50:30;;;;;;;0.00;0.00;;;;;;;;;;5093717;28;20039;-84
2023/08/02 01:52:56;;;;;;;0.00;0.00;;;;;;;;;;5093102;28;20032;-84
2023/08/02 01:55:22;;;;;;;0.03;0.03;;;;;;;;;;5093736;28;20028;-84
2023/08/02 01:57:48;;;;;;;0.10;0.10;;;;;;;;;;5093709;28;20067;-84
2023/08/02 02:00:14;;;;;;;0.00;0.00;;;;;;;;;;5093790;28;20032;-85
2023/08/02 02:02:40;;;;;;;0.10;0.10;;;;;;;;;;5093258;28;20032;-84
2023/08/02 02:05:06;;;;;;;0.15;0.10;;;;;;;;;;5093945;28;20043;-85
2023/08/02 02:07:32;;;;;;;0.10;0.10;;;;;;;;;;5093338;28;20020;-84
2023/08/02 02:09:58;;;;;;;0.00;0.00;;;;;;;;;;5093243;28;20044;-84
2023/08/02 02:12:24;;;;;;;0.03;0.03;;;;;;;;;;5093872;28;20027;-85
2023/08/02 02:14:50;;;;;;;0.00;0.00;;;;;;;;;;5093208;28;20111;-81
2023/08/02 02:17:16;;;;;;;0.38;0.20;;;;;;;;;;5093382;28;20023;-84
2023/08/02 02:19:42;;;;;;;0.00;0.00;;;;;;;;;;5093347;28;20028;-84
2023/08/02 02:22:09;;;;;;;0.10;0.10;;;;;;;;;;5093267;28;20593;-85
2023/08/02 02:24:35;;;;;;;0.00;0.00;;;;;;;;;;5092885;28;20043;-84
2023/08/02 02:27:01;;;;;;;0.00;0.00;;;;;;;;;;5093560;28;20500;-85
2023/08/02 02:29:27;;;;;;;0.15;0.15;;;;;;;;;;5092464;28;20059;-84
2023/08/02 02:31:53;;;;;;;0.10;0.10;;;;;;;;;;5093028;28;20026;-84
2023/08/02 02:34:19;;;;;;;0.20;0.20;;;;;;;;;;5093096;28;20031;-84
2023/08/02 02:36:46;;;;;;;0.10;0.10;;;;;;;;;;5092685;28;20068;-84
2023/08/02 02:39:12;;;;;;;0.20;0.20;;;;;;;;;;5092965;28;20038;-84
2023/08/02 02:41:38;;;;;;;0.03;0.03;;;;;;;;;;5093323;28;20022;-84
2023/08/02 02:44:04;;;;;;;0.10;0.10;;;;;;;;;;5074314;28;20475;-84
2023/08/02 02:46:30;;;;;;;0.08;0.08;;;;;;;;;;5092869;28;20050;-84
2023/08/02 02:48:56;;;;;;;0.00;0.00;;;;;;;;;;5092717;28;20496;-85
2023/08/02 02:51:22;;;;;;;0.00;0.00;;;;;;;;;;5093079;28;20111;-84
2023/08/02 02:53:48;;;;;;;0.00;0.00;;;;;;;;;;5092708;28;20042;-85
2023/08/02 02:56:14;;;;;;;0.00;0.00;;;;;;;;;;5092861;28;20376;-84
2023/08/02 02:58:40;;;;;;;0.00;0.00;;;;;;;;;;5092357;28;20051;-84
2023/08/02 03:01:06;;;;;;;0.10;0.10;;;;;;;;;;5092568;28;20115;-84
2023/08/02 03:03:32;;;;;;;0.00;0.00;;;;;;;;;;5092470;28;20027;-84
2023/08/02 03:05:57;;;;;;;0.00;0.00;;;;;;;;;;5092246;28;20024;-84
2023/08/02 03:08:23;;;;;;;0.00;0.00;;;;;;;;;;5092463;28;20511;-84
2023/08/02 03:10:49;;;;;;;0.00;0.00;;;;;;;;;;5092462;28;20032;-84
2023/08/02 03:13:15;;;;;;;0.08;0.08;;;;;;;;;;5092446;28;20028;-84
2023/08/02 03:15:41;;;;;;;0.00;0.00;;;;;;;;;;5092489;28;20028;-84
2023/08/02 03:18:07;;;;;;;0.30;0.30;;;;;;;;;;5092357;28;20020;-84
2023/08/02 03:20:33;;;;;;;0.10;0.10;;;;;;;;;;5092276;28;20028;-84
2023/08/02 03:22:59;;;;;;;0.10;0.10;;;;;;;;;;5092671;28;20128;-84
2023/08/02 03:25:25;;;;;;;0.00;0.00;;;;;;;;;;5107833;28;20499;-84
2023/08/02 03:27:51;;;;;;;0.10;0.10;;;;;;;;;;5091779;28;20032;-85
2023/08/02 03:30:17;;;;;;;0.00;0.00;;;;;;;;;;5091998;28;20094;-84
2023/08/02 03:32:43;;;;;;;0.00;0.00;;;;;;;;;;5092014;28;20042;-84
2023/08/02 03:35:09;;;;;;;0.08;0.08;;;;;;;;;;5107844;28;20028;-84
2023/08/02 03:37:35;;;;;;;0.10;0.10;;;;;;;;;;5092143;28;20035;-84
2023/08/02 03:40:01;;;;;;;0.10;0.10;;;;;;;;;;5091979;28;20115;-84
2023/08/02 03:42:27;;;;;;;0.13;0.13;;;;;;;;;;5091702;28;20104;-85
2023/08/02 03:44:53;;;;;;;0.00;0.00;;;;;;;;;;5092216;28;20543;-84
2023/08/02 03:47:19;;;;;;;0.00;0.00;;;;;;;;;;5091865;28;20031;-84
2023/08/02 03:49:45;;;;;;;0.00;0.00;;;;;;;;;;5107958;28;20165;-84
2023/08/02 03:52:11;;;;;;;0.20;0.20;;;;;;;;;;5091976;28;20103;-83
2023/08/02 03:54:38;;;;;;;0.10;0.10;;;;;;;;;;5091939;28;20028;-84
2023/08/02 03:57:04;;;;;;;0.17;0.13;;;;;;;;;;5091552;28;20054;-84
2023/08/02 03:59:30;;;;;;;0.00;0.00;;;;;;;;;;5091933;28;20404;-84
2023/08/02 04:01:56;;;;;;;0.00;0.00;;;;;;;;;;5091839;28;20049;-84
2023/08/02 04:04:22;;;;;;;0.40;0.20;;;;;;;;;;5092408;28;20020;-84
2023/08/02 04:06:48;;;;;;;0.10;0.10;;;;;;;;;;5091493;28;20024;-84
2023/08/02 04:09:14;;;;;;;0.00;0.00;;;;;;;;;;5092183;28;20182;-84
2023/08/02 04:11:40;;;;;;;0.00;0.00;;;;;;;;;;5091538;28;20028;-84
2023/08/02 04:14:06;;;;;;;0.00;0.00;;;;;;;;;;5091828;28;20154;-84
2023/08/02 04:16:31;;;;;;;0.10;0.10;;;;;;;;;;5092973;28;20035;-84
2023/08/02 04:18:57;;;;;;;0.17;0.17;;;;;;;;;;5095729;28;20484;-84
2023/08/02 04:21:23;;;;;;;0.00;0.00;;;;;;;;;;5095802;28;20035;-84
2023/08/02 04:23:51;;;;;;;0.00;0.00;;;;;;;;;;5095173;28;20009;-84
2023/08/02 04:26:17;;;;;;;0.00;0.00;;;;;;;;;;5095617;28;20500;-84
2023/08/02 04:28:45;;;;;;;0.00;0.00;;;;;;;;;;5095441;28;20020;-84
2023/08/02 04:31:11;;;;;;;0.08;0.08;;;;;;;;;;5054888;28;20438;-84
2023/08/02 04:33:37;;;;;;;0.00;0.00;;;;;;;;;;5055170;28;20024;-84
2023/08/02 04:36:03;;;;;;;1.45;0.15;;;;;;;;;;5054995;28;20424;-84
2023/08/02 04:38:29;;;;;;;0.00;0.00;;;;;;;;;;5055028;28;20036;-85
2023/08/02 04:40:56;;;;;;;0.20;0.20;;;;;;;;;;5055052;28;20017;-84
2023/08/02 04:43:22;;;;;;;0.10;0.10;;;;;;;;;;5054913;28;20547;-84
2023/08/02 04:45:48;;;;;;;0.00;0.00;;;;;;;;;;5054718;28;20021;-84
2023/08/02 04:48:14;;;;;;;0.00;0.00;;;;;;;;;;5054774;28;20033;-84
2023/08/02 04:50:40;;;;;;;0.00;0.00;;;;;;;;;;5054728;28;20397;-84
2023/08/02 04:53:06;;;;;;;0.15;0.13;;;;;;;;;;5055169;28;20025;-85
2023/08/02 04:55:41;;;;;;;0.00;0.00;;;;;;;;;;5053039;28;20028;-84
2023/08/02 04:58:07;;;;;;;3.42;0.10;;;;;;;;;;5054726;28;20024;-84
2023/08/02 05:00:33;;;;;;;0.00;0.00;;;;;;;;;;5054401;28;20393;-84
2023/08/02 05:02:58;;;;;;;0.10;0.10;;;;;;;;;;5054558;28;20032;-84
2023/08/02 05:05:25;;;;;;;0.10;0.10;;;;;;;;;;5053545;28;20052;-84
2023/08/02 05:07:51;;;;;;;0.10;0.10;;;;;;;;;;5054284;28;20147;-84
2023/08/02 05:10:16;;;;;;;0.00;0.00;;;;;;;;;;5054128;28;20120;-84
2023/08/02 05:12:43;;;;;;;0.03;0.03;;;;;;;;;;5054311;28;20040;-84
2023/08/02 05:15:09;;;;;;;0.00;0.00;;;;;;;;;;5054183;28;20028;-84
2023/08/02 05:17:35;;;;;;;0.10;0.10;;;;;;;;;;5054363;28;20136;-84
2023/08/02 05:20:01;;;;;;;0.10;0.10;;;;;;;;;;5054270;28;20100;-84
2023/08/02 05:22:27;;;;;;;0.38;0.38;;;;;;;;;;5054149;28;20029;-85
2023/08/02 05:24:53;;;;;;;0.10;0.10;;;;;;;;;;5053635;28;20013;-84
2023/08/02 05:27:19;;;;;;;0.00;0.00;;;;;;;;;;5052759;28;20032;-84
2023/08/02 05:29:46;;;;;;;0.05;0.05;;;;;;;;;;5070879;28;20481;-84
2023/08/02 05:32:12;;;;;;;0.10;0.10;;;;;;;;;;5094665;28;20046;-84
2023/08/02 05:34:37;;;;;;;0.10;0.10;;;;;;;;;;5094223;28;20020;-84
2023/08/02 05:37:04;;;;;;;0.30;0.30;;;;;;;;;;5094158;28;20024;-84
2023/08/02 05:39:30;;;;;;;0.00;0.00;;;;;;;;;;5093988;28;20016;-85
2023/08/02 05:41:56;;;;;;;0.10;0.10;;;;;;;;;;5075926;28;20035;-85
2023/08/02 05:44:21;;;;;;;0.20;0.20;;;;;;;;;;5093887;28;20035;-84
2023/08/02 05:46:48;;;;;;;0.00;0.00;;;;;;;;;;5094221;28;20362;-84
2023/08/02 05:49:14;;;;;;;0.22;0.13;;;;;;;;;;5093775;28;20039;-85
2023/08/02 05:51:41;;;;;;;0.30;0.30;;;;;;;;;;5093825;28;20032;-84
2023/08/02 05:54:07;;;;;;;0.20;0.20;;;;;;;;;;5093383;28;20076;-84
2023/08/02 05:56:33;;;;;;;0.00;0.00;;;;;;;;;;5093719;28;20035;-84
2023/08/02 05:58:59;;;;;;;0.17;0.17;;;;;;;;;;5093915;28;20021;-84
2023/08/02 06:01:25;;;;;;;0.05;0.05;;;;;;;;;;5093857;28;20032;-84
2023/08/02 06:03:51;;;;;;;0.30;0.30;;;;;;;;;;5093525;28;20020;-84
2023/08/02 06:06:17;;;;;;;0.00;0.00;;;;;;;;;;5093447;28;20085;-84
2023/08/02 06:08:45;;;;;;;0.03;0.03;;;;;;;;;;5093369;28;20495;-84
2023/08/02 06:11:12;;;;;;;0.10;0.10;;;;;;;;;;5093917;28;20044;-94
2023/08/02 06:13:38;;;;;;;0.43;0.20;;;;;;;;;;5093530;28;20024;-88
2023/08/02 06:16:04;;;;;;;0.38;0.38;;;;;;;;;;5093384;28;20067;-88
2023/08/02 06:18:30;;;;;;;0.25;0.15;;;;;;;;;;5093173;28;20023;-89
2023/08/02 06:20:56;;;;;;;0.10;0.10;;;;;;;;;;5093558;28;20016;-88
2023/08/02 06:23:23;;;;;;;0.20;0.20;;;;;;;;;;5092733;28;20483;-88
2023/08/02 06:25:48;;;;;;;0.10;0.10;;;;;;;;;;5092297;28;20440;-88
2023/08/02 06:28:14;;;;;;;0.47;0.30;;;;;;;;;;5092614;28;20058;-88
2023/08/02 06:30:40;;;;;;;0.20;0.20;;;;;;;;;;5092628;28;20055;-88
2023/08/02 06:33:06;;;;;;;0.65;0.52;;;;;;;;;;5092968;28;20027;-87
2023/08/02 06:35:32;;;;;;;0.40;0.40;;;;;;;;;;5093258;28;20495;-88
2023/08/02 06:37:58;;;;;;;0.10;0.10;;;;;;;;;;5074483;28;20052;-88
2023/08/02 06:40:25;;;;;;;1.10;0.68;;;;;;;;;;5092227;28;20059;-88
2023/08/02 06:42:51;;;;;;;2.50;0.75;;;;;;;;;;5093058;28;20024;-87
2023/08/02 06:45:17;;;;;;;0.10;0.10;;;;;;;;;;5092726;28;20400;-87
2023/08/02 06:47:42;;;;;;;0.17;0.17;;;;;;;;;;5092749;28;20056;-88
2023/08/02 06:50:09;;;;;;;0.90;0.82;;;;;;;;;;5074490;28;20039;-87
2023/08/02 06:52:35;;;;;;;0.52;0.28;;;;;;;;;;5074390;28;20430;-88
2023/08/02 06:55:00;;;;;;;0.80;0.30;;;;;;;;;;5093153;28;20028;-89
2023/08/02 06:57:31;;;;;;;0.75;0.47;;;;;;;;;;5074495;28;20361;-87
2023/08/02 06:59:56;;;;;;;0.00;0.00;;;;;;;;;;5092644;28;20016;-88
2023/08/02 07:02:22;;;;;;;0.60;0.60;;;;;;;;;;5090751;28;20030;-88
2023/08/02 07:04:48;;;;;;;0.20;0.20;;;;;;;;;;5095099;28;20020;-88
2023/08/02 07:07:14;;;;;;;0.63;0.63;;;;;;;;;;5100291;28;20085;-88
2023/08/02 07:09:40;;;;;;;0.30;0.30;;;;;;;;;;5111395;28;20039;-88
2023/08/02 07:12:06;;;;;;;0.20;0.20;;;;;;;;;;5112496;28;20020;-88
2023/08/02 07:14:32;;;;;;;0.30;0.30;;;;;;;;;;5112664;28;20448;-88
2023/08/02 07:16:58;;;;;;;0.32;0.32;;;;;;;;;;5108462;28;20028;-88
2023/08/02 07:19:24;;;;;;;0.28;0.28;;;;;;;;;;5092645;28;20032;-88
2023/08/02 07:21:50;;;;;;;0.15;0.13;;;;;;;;;;5095741;28;20028;-88
2023/08/02 07:24:16;;;;;;;4.43;1.05;;;;;;;;;;5092065;28;20027;-87
2023/08/02 07:26:42;;;;;;;0.20;0.20;;;;;;;;;;5073649;28;20110;-87
2023/08/02 07:29:08;;;;;;;0.13;0.13;;;;;;;;;;5091454;28;20044;-88
2023/08/02 07:31:35;;;;;;;0.45;0.43;;;;;;;;;;5092029;28;20464;-85
2023/08/02 07:34:01;;;;;;;0.32;0.32;;;;;;;;;;5091668;28;20111;-86
2023/08/02 07:36:27;;;;;;;3.17;0.77;;;;;;;;;;5092075;28;20099;-86
2023/08/02 07:38:53;;;;;;;0.17;0.17;;;;;;;;;;5108258;28;20031;-86
2023/08/02 07:41:19;;;;;;;0.73;0.57;;;;;;;;;;5107671;28;20504;-86
2023/08/02 07:43:45;;;;;;;0.28;0.28;;;;;;;;;;5092215;28;20035;-86
2023/08/02 07:46:19;;;;;;;0.10;0.10;;;;;;;;;;5092496;28;20095;-86
2023/08/02 07:48:45;;;;;;;0.73;0.40;;;;;;;;;;5107403;28;20144;-86
2023/08/02 07:51:11;;;;;;;0.30;0.30;;;;;;;;;;5092913;28;20028;-86
2023/08/02 07:53:37;;;;;;;1.10;0.28;;;;;;;;;;5096007;28;20140;-86
2023/08/02 07:56:03;;;;;;;0.13;0.13;;;;;;;;;;5095901;28;20085;-86
2023/08/02 07:58:29;;;;;;;0.50;0.30;;;;;;;;;;5096604;28;20016;-86
2023/08/02 08:00:55;;;;;;;0.20;0.20;;;;;;;;;;5096156;28;20365;-86
2023/08/02 08:03:21;;;;;;;0.32;0.22;;;;;;;;;;5095580;28;20434;-86
2023/08/02 08:05:47;;;;;;;0.32;0.32;;;;;;;;;;5095972;28;20024;-86
2023/08/02 08:08:14;;;;;;;0.15;0.15;;;;;;;;;;5095794;28;20480;-86
2023/08/02 08:10:40;;;;;;;0.30;0.30;;;;;;;;;;5096029;28;20059;-86
2023/08/02 08:13:06;;;;;;;0.25;0.25;;;;;;;;;;5095803;28;20052;-86
2023/08/02 08:15:32;;;;;;;0.43;0.43;;;;;;;;;;5095651;28;20047;-86
2023/08/02 08:17:58;;;;;;;0.10;0.10;;;;;;;;;;5095235;28;20097;-86
2023/08/02 08:20:24;;;;;;;0.38;0.38;;;;;;;;;;5095511;28;20496;-86
2023/08/02 08:22:50;;;;;;;0.38;0.32;;;;;;;;;;5095779;28;20031;-86
2023/08/02 08:25:16;;;;;;;0.82;0.50;;;;;;;;;;5095298;28;20373;-86
2023/08/02 08:27:42;;;;;;;0.35;0.22;;;;;;;;;;5095467;28;20030;-86
2023/08/02 08:30:08;;;;;;;3.95;1.27;;;;;;;;;;5095404;28;20518;-86
2023/08/02 08:32:34;;;;;;;0.20;0.20;;;;;;;;;;5095114;28;20020;-86
2023/08/02 08:35:01;;;;;;;1.13;0.85;;;;;;;;;;5095319;28;20384;-85
2023/08/02 08:37:27;;;;;;;0.20;0.20;;;;;;;;;;5095347;28;20073;-86
2023/08/02 08:39:53;;;;;;;0.65;0.35;;;;;;;;;;5095176;28;20027;-86
2023/08/02 08:42:19;;;;;;;0.40;0.40;;;;;;;;;;5095130;28;20024;-86
2023/08/02 08:44:45;;;;;;;0.90;0.68;;;;;;;;;;5077277;28;20057;-86
2023/08/02 08:47:12;;;;;;;2.92;0.70;;;;;;;;;;5094750;28;20028;-85
2023/08/02 08:49:38;;;;;;;0.60;0.60;;;;;;;;;;5076842;28;20100;-86
2023/08/02 08:52:05;;;;;;;0.57;0.57;;;;;;;;;;5095152;28;20027;-86
2023/08/02 08:54:35;;;;;;;0.50;0.50;;;;;;;;;;5094730;28;20111;-86
2023/08/02 08:57:01;;;;;;;0.20;0.20;;;;;;;;;;5095354;28;20020;-86
2023/08/02 08:59:27;;;;;;;0.45;0.45;;;;;;;;;;5094869;28;20036;-86
2023/08/02 09:01:53;;;;;;;0.08;0.08;;;;;;;;;;5075583;28;20028;-86
2023/08/02 09:04:19;;;;;;;0.30;0.30;;;;;;;;;;5094762;28;20031;-86
2023/08/02 09:06:45;;;;;;;0.68;0.68;;;;;;;;;;5094882;28;20024;-86
2023/08/02 09:09:14;;;;;;;0.73;0.73;;;;;;;;;;5094927;28;20024;-87
2023/08/02 09:11:41;;;;;;;0.40;0.40;;;;;;;;;;5094815;28;20028;-86
2023/08/02 09:14:14;;;;;;;0.25;0.25;;;;;;;;;;5094638;28;20027;-86
2023/08/02 09:17:00;;;;;;;0.85;0.77;;;;;;;;;;5094250;28;20028;-86
2023/08/02 09:19:27;;;;;;;1.02;0.68;;;;;;;;;;5094635;28;20017;-87
2023/08/02 09:22:12;;;;;;;1.88;1.10;;;;;;;;;;5094681;28;20031;-86
2023/08/02 09:24:39;;;;;;;0.93;0.52;;;;;;;;;;5094299;28;20103;-86
2023/08/02 09:27:06;;;;;;;0.32;0.32;;;;;;;;;;5094262;28;20024;-86
2023/08/02 09:29:48;;;;;;;0.10;0.10;;;;;;;;;;5094143;28;20060;-86
2023/08/02 09:32:15;;;;;;;0.77;0.52;;;;;;;;;;5094060;28;20506;-86
2023/08/02 09:34:45;;;;;;;0.20;0.20;;;;;;;;;;5093444;28;20023;-85
2023/08/02 09:37:12;;;;;;;0.30;0.30;;;;;;;;;;5092602;28;20028;-85
2023/08/02 09:39:38;;;;;;;0.22;0.20;;;;;;;;;;5094496;28;20069;-85
2023/08/02 09:42:13;;;;;;;0.15;0.15;;;;;;;;;;5093519;28;20115;-85
2023/08/02 09:44:42;;;;;;;0.25;0.25;;;;;;;;;;5093738;28;20028;-86
2023/08/02 09:47:09;;;;;;;0.20;0.20;;;;;;;;;;5092987;28;20103;-89
2023/08/02 09:49:35;;;;;;;0.43;0.43;;;;;;;;;;5093662;28;20032;-89
2023/08/02 09:52:01;;;;;;;0.43;0.43;;;;;;;;;;5093990;28;20020;-90
2023/08/02 09:54:29;;;;;;;0.20;0.20;;;;;;;;;;5093475;28;20103;-89
2023/08/02 09:56:55;;;;;;;0.35;0.35;;;;;;;;;;5093648;28;20055;-89
2023/08/02 09:59:22;;;;;;;0.20;0.20;;;;;;;;;;5092727;28;20115;-88
2023/08/02 10:01:48;;;;;;;0.43;0.43;;;;;;;;;;5093617;28;20028;-89
2023/08/02 10:04:15;;;;;;;0.40;0.40;;;;;;;;;;5092334;28;20051;-89
2023/08/02 10:06:45;;;;;;;0.45;0.45;;;;;;;;;;5093789;28;20028;-89
2023/08/02 10:09:12;;;;;;;0.32;0.32;;;;;;;;;;5093539;28;20028;-89
2023/08/02 10:11:40;;;;;;;0.22;0.20;;;;;;;;;;5092741;28;20396;-89
2023/08/02 10:14:06;;;;;;;0.50;0.50;;;;;;;;;;5092032;28;20495;-89
2023/08/02 10:16:32;;;;;;;0.20;0.20;;;;;;;;;;5093169;28;20028;-89
2023/08/02 10:19:01;;;;;;;0.22;0.22;;;;;;;;;;5093139;28;20032;-89
2023/08/02 10:21:27;;;;;;;0.63;0.50;;;;;;;;;;5093594;28;20028;-90
2023/08/02 10:23:53;;;;;;;0.20;0.20;;;;;;;;;;5092839;28;20024;-89
2023/08/02 10:26:19;;;;;;;0.25;0.25;;;;;;;;;;5074702;28;20111;-89
2023/08/02 10:28:46;;;;;;;0.47;0.35;;;;;;;;;;5092335;28;20028;-88
2023/08/02 10:31:12;;;;;;;4.50;0.40;;;;;;;;;;5092568;28;20052;-89
2023/08/02 10:33:38;;;;;;;0.40;0.40;;;;;;;;;;5092520;28;20039;-89
2023/08/02 10:36:05;;;;;;;0.63;0.63;;;;;;;;;;5093872;28;20020;-89
2023/08/02 10:38:31;;;;;;;0.20;0.20;;;;;;;;;;5091954;28;20024;-89
2023/08/02 10:41:01;;;;;;;4.72;0.70;;;;;;;;;;5092108;28;20036;-89
2023/08/02 10:43:27;;;;;;;0.22;0.22;;;;;;;;;;5074626;28;20024;-89
2023/08/02 10:46:12;;;;;;;0.45;0.45;;;;;;;;;;5092520;28;20089;-91
2023/08/02 10:48:38;;;;;;;0.70;0.57;;;;;;;;;;5092712;28;20384;-89
2023/08/02 10:51:04;;;;;;;0.82;0.50;;;;;;;;;;5092072;28;20044;-89
2023/08/02 10:53:30;;;;;;;2.60;0.93;;;;;;;;;;5092255;28;20089;-89
2023/08/02 10:56:03;;;;;;;1.20;0.68;;;;;;;;;;5092252;28;20058;-89
2023/08/02 10:58:48;;;;;;;0.50;0.10;;;;;;;;;;5092063;28;20480;-89
2023/08/02 11:01:14;;;;;;;0.25;0.25;;;;;;;;;;5092759;28;20046;-88
2023/08/02 11:03:40;;;;;;;0.20;0.20;;;;;;;;;;5092307;28;20094;-90
2023/08/02 11:06:06;;;;;;;0.22;0.22;;;;;;;;;;5092407;28;20028;-90
2023/08/02 11:08:45;;;;;;;0.38;0.38;;;;;;;;;;5093690;28;20031;-90
2023/08/02 11:11:11;;;;;;;0.40;0.40;;;;;;;;;;5092089;28;20051;-87
2023/08/02 11:13:40;;;;;;;0.60;0.60;;;;;;;;;;5091955;28;20020;-89
2023/08/02 11:16:07;;;;;;;0.43;0.43;;;;;;;;;;5092372;28;20039;-89
2023/08/02 11:18:33;;;;;;;0.20;0.20;;;;;;;;;;5091800;28;20561;-88
2023/08/02 11:21:09;;;;;;;0.30;0.30;;;;;;;;;;5099348;28;20036;-88
2023/08/02 11:23:36;;;;;;;0.20;0.20;;;;;;;;;;5088878;28;20500;-88
2023/08/02 11:26:12;;;;;;;1.17;0.57;;;;;;;;;;5091944;28;20032;-89
2023/08/02 11:28:47;;;;;;;0.52;0.30;;;;;;;;;;5091925;28;20031;-86
2023/08/02 11:31:14;;;;;;;0.38;0.35;;;;;;;;;;5051799;28;20044;-86
2023/08/02 11:33:40;;;;;;;0.20;0.17;;;;;;;;;;5051500;28;20100;-86
2023/08/02 11:36:06;;;;;;;1.08;0.50;;;;;;;;;;5051988;28;20025;-86
2023/08/02 11:38:33;;;;;;;0.35;0.35;;;;;;;;;;5051070;28;20025;-86
2023/08/02 11:40:59;;;;;;;0.90;0.65;;;;;;;;;;5054452;28;20086;-93
2023/08/02 11:43:34;;;;;;;0.43;0.43;;;;;;;;;;5051839;28;20115;-89
2023/08/02 11:46:00;;;;;;;0.20;0.20;;;;;;;;;;5051877;28;20025;-94
2023/08/02 11:48:26;;;;;;;1.38;0.68;;;;;;;;;;5052206;28;20029;-89
2023/08/02 11:50:54;;;;;;;0.10;0.10;;;;;;;;;;5051796;28;20040;-87
2023/08/02 11:53:20;;;;;;;0.28;0.28;;;;;;;;;;5084070;28;20432;-87
2023/08/02 11:55:46;;;;;;;0.40;0.40;;;;;;;;;;5051351;28;20025;-83
2023/08/02 11:58:12;;;;;;;0.50;0.50;;;;;;;;;;5050835;28;20025;-84
2023/08/02 12:00:38;;;;;;;2.30;0.30;;;;;;;;;;5051448;28;20107;-84
2023/08/02 12:03:14;;;;;;;0.30;0.30;;;;;;;;;;5051675;28;20025;-84
2023/08/02 12:05:41;;;;;;;0.17;0.17;;;;;;;;;;5051741;28;20025;-84
2023/08/02 12:08:10;;;;;;;0.10;0.10;;;;;;;;;;5051569;28;20378;-84
2023/08/02 12:10:36;;;;;;;1.08;0.90;;;;;;;;;;5051104;28;20041;-84
2023/08/02 12:13:09;;;;;;;0.40;0.40;;;;;;;;;;5051438;28;20036;-84
2023/08/02 12:15:35;;;;;;;0.20;0.20;;;;;;;;;;5050386;28;20556;-84
2023/08/02 12:18:03;;;;;;;0.50;0.50;;;;;;;;;;5051213;28;20053;-84
2023/08/02 12:20:32;;;;;;;0.65;0.43;;;;;;;;;;5051611;28;20029;-84
2023/08/02 12:22:58;;;;;;;1.35;0.90;;;;;;;;;;5051448;28;20025;-84
2023/08/02 12:25:24;;;;;;;0.43;0.43;;;;;;;;;;5050947;28;20548;-83
2023/08/02 12:28:06;;;;;;;1.65;0.80;;;;;;;;;;5051361;28;20086;-84
2023/08/02 12:30:32;;;;;;;0.52;0.52;;;;;;;;;;5081555;28;20092;-84
2023/08/02 12:32:59;;;;;;;0.57;0.57;;;;;;;;;;5091726;28;20035;-85
2023/08/02 12:35:25;;;;;;;0.57;0.55;;;;;;;;;;5091640;28;20404;-84
2023/08/02 12:37:51;;;;;;;0.50;0.50;;;;;;;;;;5093358;28;20489;-83
2023/08/02 12:40:17;;;;;;;1.20;0.80;;;;;;;;;;5095077;28;20051;-84
2023/08/02 12:42:43;;;;;;;0.22;0.22;;;;;;;;;;5095334;28;20016;-84
2023/08/02 12:45:10;;;;;;;0.30;0.30;;;;;;;;;;5095045;28;20468;-84
2023/08/02 12:47:36;;;;;;;0.20;0.20;;;;;;;;;;5095310;28;20024;-84
2023/08/02 12:50:02;;;;;;;0.30;0.30;;;;;;;;;;5095468;28;20477;-84
2023/08/02 12:52:28;;;;;;;0.38;0.38;;;;;;;;;;5095030;28;20027;-84
2023/08/02 12:54:55;;;;;;;0.13;0.13;;;;;;;;;;5094676;28;20024;-84
2023/08/02 12:57:21;;;;;;;0.85;0.85;;;;;;;;;;5094991;28;20050;-83
2023/08/02 12:59:47;;;;;;;0.35;0.30;;;;;;;;;;5094810;28;20473;-84
2023/08/02 13:02:13;;;;;;;0.95;0.55;;;;;;;;;;5077117;28;20024;-83
2023/08/02 13:04:39;;;;;;;1.95;0.70;;;;;;;;;;5094724;28;20035;-84
2023/08/02 13:07:06;;;;;;;0.20;0.20;;;;;;;;;;5094684;28;20055;-84
2023/08/02 13:09:33;;;;;;;0.40;0.40;;;;;;;;;;5094797;28;20530;-84
2023/08/02 13:11:59;;;;;;;0.25;0.25;;;;;;;;;;5094796;28;20028;-84
2023/08/02 13:14:25;;;;;;;0.45;0.30;;;;;;;;;;5076371;28;20024;-84
2023/08/02 13:16:51;;;;;;;0.65;0.65;;;;;;;;;;5094665;28;20132;-84
2023/08/02 13:19:17;;;;;;;0.13;0.13;;;;;;;;;;5094624;28;20091;-84
2023/08/02 13:21:44;;;;;;;0.63;0.60;;;;;;;;;;5094545;28;20162;-84
2023/08/02 13:24:10;;;;;;;0.30;0.30;;;;;;;;;;5094336;28;20047;-84
2023/08/02 13:26:36;;;;;;;0.30;0.30;;;;;;;;;;5094205;28;20468;-84
2023/08/02 13:29:02;;;;;;;0.68;0.68;;;;;;;;;;5094039;28;20032;-84
2023/08/02 13:31:28;;;;;;;0.70;0.70;;;;;;;;;;5094576;28;20031;-84
2023/08/02 13:33:54;;;;;;;1.02;0.77;;;;;;;;;;5094563;28;20039;-84
2023/08/02 13:36:20;;;;;;;0.52;0.40;;;;;;;;;;5093814;28;20024;-84
2023/08/02 13:38:46;;;;;;;0.25;0.25;;;;;;;;;;5094182;28;20032;-84
2023/08/02 13:41:12;;;;;;;0.28;0.28;;;;;;;;;;5094017;28;20028;-84
2023/08/02 13:43:38;;;;;;;0.98;0.77;;;;;;;;;;5094064;28;20028;-84
2023/08/02 13:46:04;;;;;;;0.35;0.35;;;;;;;;;;5093945;28;20376;-84
2023/08/02 13:48:30;;;;;;;0.32;0.32;;;;;;;;;;5094103;28;20059;-84
2023/08/02 13:50:56;;;;;;;0.55;0.55;;;;;;;;;;5093753;28;20040;-84
2023/08/02 13:53:22;;;;;;;1.05;0.63;;;;;;;;;;5093972;28;20028;-84
2023/08/02 13:55:48;;;;;;;0.45;0.25;;;;;;;;;;5093714;28;20400;-84
2023/08/02 13:58:14;;;;;;;0.20;0.20;;;;;;;;;;5075630;28;20111;-84
2023/08/02 14:00:40;;;;;;;0.40;0.40;;;;;;;;;;5093691;28;20032;-84
2023/08/02 14:03:06;;;;;;;0.65;0.65;;;;;;;;;;5075893;28;20051;-84
2023/08/02 14:05:32;;;;;;;0.30;0.30;;;;;;;;;;5093321;28;20072;-84
2023/08/02 14:07:58;;;;;;;0.63;0.60;;;;;;;;;;5093499;28;20016;-84
2023/08/02 14:10:24;;;;;;;5.82;1.48;;;;;;;;;;5093852;28;20032;-84
2023/08/02 14:12:50;;;;;;;0.57;0.57;;;;;;;;;;5093485;28;20082;-84
2023/08/02 14:15:16;;;;;;;0.30;0.28;;;;;;;;;;5093439;28;20034;-84
2023/08/02 14:17:42;;;;;;;0.93;0.85;;;;;;;;;;5093500;28;20032;-84
2023/08/02 14:20:08;;;;;;;0.63;0.45;;;;;;;;;;5092910;28;20027;-84
2023/08/02 14:22:34;;;;;;;0.40;0.40;;;;;;;;;;5093370;28;20031;-84
2023/08/02 14:25:00;;;;;;;0.50;0.40;;;;;;;;;;5093432;28;20032;-83
2023/08/02 14:27:26;;;;;;;0.70;0.57;;;;;;;;;;5093077;28;20476;-84
2023/08/02 14:29:52;;;;;;;3.50;0.45;;;;;;;;;;5092980;28;20054;-84
2023/08/02 14:32:18;;;;;;;0.20;0.20;;;;;;;;;;5093028;28;20028;-84
2023/08/02 14:34:44;;;;;;;0.20;0.20;;;;;;;;;;5092722;28;20088;-87
2023/08/02 14:37:10;;;;;;;0.75;0.73;;;;;;;;;;5093434;28;20397;-84
2023/08/02 14:39:36;;;;;;;0.57;0.57;;;;;;;;;;5092926;28;20062;-84